Time;durP1;ratioP1;P1;durP2;ratioP2;P2;SDS_P1;SDS_P2;PMS_P1;PMS_P2;Temp;Humidity;BMP_temperature;BMP_pressure;BME280_temperature;BME280_humidity;BME280_pressure;Samples;Min_cycle;Max_cycle;Signal;HPM_P1;HPM_P2
2022/04/02 00:01:24;;;;;;;3.13;2.10;;;2.90;80.80;;;;;;4996094;28;88473;-70
2022/04/02 00:03:51;;;;;;;4.63;2.10;;;2.80;80.70;;;;;;4995977;28;91382;-70
2022/04/02 00:06:18;;;;;;;3.85;2.28;;;2.80;80.80;;;;;;4997657;28;88632;-70
2022/04/02 00:08:45;;;;;;;2.17;1.70;;;2.80;81.10;;;;;;4996168;28;88618;-70
2022/04/02 00:11:12;;;;;;;4.05;1.98;;;2.70;80.90;;;;;;4997192;28;88439;-70
2022/04/02 00:13:39;;;;;;;3.00;1.98;;;2.70;81.30;;;;;;4996995;28;89442;-70
2022/04/02 00:16:07;;;;;;;3.53;2.03;;;2.80;81.40;;;;;;4997360;28;89495;-70
2022/04/02 00:18:34;;;;;;;6.72;2.60;;;2.70;81.50;;;;;;4997144;28;88022;-70
2022/04/02 00:21:02;;;;;;;2.47;2.08;;;2.70;81.70;;;;;;4997220;28;88211;-70
2022/04/02 00:23:41;;;;;;;2.00;1.88;;;2.70;82.20;;;;;;4995699;28;88902;-70
2022/04/02 00:26:14;;;;;;;4.28;1.83;;;2.70;82.00;;;;;;4997365;28;91122;-70
2022/04/02 00:28:42;;;;;;;2.17;1.97;;;2.70;82.00;;;;;;4995845;28;88419;-70
2022/04/02 00:31:12;;;;;;;3.17;2.28;;;2.70;82.30;;;;;;4997495;28;88450;-70
2022/04/02 00:33:42;;;;;;;4.40;2.03;;;2.70;82.30;;;;;;4979515;28;90334;-70
2022/04/02 00:36:10;;;;;;;2.25;2.05;;;2.70;82.20;;;;;;4995060;28;90857;-69
2022/04/02 00:38:37;;;;;;;2.50;2.30;;;2.70;82.40;;;;;;4995070;28;89349;-70
2022/04/02 00:41:05;;;;;;;2.38;1.98;;;2.60;82.30;;;;;;4996419;28;90902;-70
2022/04/02 00:43:38;;;;;;;2.90;2.00;;;2.70;82.40;;;;;;4999065;28;88435;-70
2022/04/02 00:46:11;;;;;;;4.60;1.90;;;2.70;82.30;;;;;;4999079;28;91160;-70
2022/04/02 00:48:40;;;;;;;2.95;2.08;;;2.70;82.40;;;;;;4998486;28;88547;-70
2022/04/02 00:51:11;;;;;;;2.75;2.20;;;2.70;82.80;;;;;;4998953;28;89983;-70
2022/04/02 00:53:41;;;;;;;3.20;1.85;;;2.60;82.60;;;;;;4998661;28;91470;-70
2022/04/02 00:56:08;;;;;;;2.20;1.77;;;2.60;82.80;;;;;;4999521;28;88663;-70
2022/04/02 00:58:35;;;;;;;2.10;1.75;;;2.60;82.60;;;;;;4998274;28;89437;-70
2022/04/02 01:01:03;;;;;;;7.13;2.17;;;2.50;82.80;;;;;;4998524;28;91475;-69
2022/04/02 01:03:37;;;;;;;2.90;1.98;;;2.50;82.60;;;;;;4999019;28;91634;-69
2022/04/02 01:06:04;;;;;;;2.65;2.30;;;2.50;82.60;;;;;;4998661;28;91868;-70
2022/04/02 01:08:37;;;;;;;3.58;2.17;;;2.60;82.80;;;;;;4998326;28;88191;-69
2022/04/02 01:11:05;;;;;;;4.88;2.10;;;2.50;82.80;;;;;;4998810;28;90436;-70
2022/04/02 01:13:32;;;;;;;2.88;1.92;;;2.50;82.90;;;;;;4998053;28;90555;-70
2022/04/02 01:16:03;;;;;;;2.38;1.92;;;2.50;83.00;;;;;;4999204;28;91049;-70
2022/04/02 01:18:31;;;;;;;4.45;2.20;;;2.50;83.10;;;;;;4998283;28;89320;-70
2022/04/02 01:20:58;;;;;;;3.28;2.00;;;2.50;83.40;;;;;;4998749;28;90989;-70
2022/04/02 01:23:35;;;;;;;2.50;2.03;;;2.50;83.40;;;;;;4999874;28;91337;-70
2022/04/02 01:26:09;;;;;;;4.25;2.10;;;2.50;83.50;;;;;;4999842;28;88538;-70
2022/04/02 01:28:43;;;;;;;3.45;2.15;;;2.50;84.00;;;;;;4997849;28;88959;-70
2022/04/02 01:31:17;;;;;;;;;;;2.50;84.10;;;;;;4984422;28;90588;-70
2022/04/02 01:33:45;;;;;;;3.60;2.47;;;2.50;84.50;;;;;;5015504;28;90958;-70
2022/04/02 01:36:12;;;;;;;3.45;2.22;;;2.40;84.90;;;;;;4997604;28;90889;-70
2022/04/02 01:38:51;;;;;;;2.65;2.05;;;2.50;85.10;;;;;;4998035;28;88079;-70
2022/04/02 01:41:19;;;;;;;2.42;2.15;;;2.50;85.70;;;;;;4998426;28;89371;-70
2022/04/02 01:43:49;;;;;;;4.97;2.58;;;2.40;86.10;;;;;;4997774;28;91164;-70
2022/04/02 01:46:16;;;;;;;3.70;2.70;;;2.40;86.50;;;;;;4998469;28;91115;-70
2022/04/02 01:48:47;;;;;;;3.63;2.55;;;2.40;86.90;;;;;;4997825;28;89085;-70
2022/04/02 01:51:14;;;;;;;4.45;2.42;;;2.40;87.40;;;;;;4997914;28;91158;-70
2022/04/02 01:53:41;;;;;;;2.92;2.30;;;2.40;87.50;;;;;;4997321;28;92246;-71
2022/04/02 01:56:11;;;;;;;3.45;2.25;;;2.40;88.20;;;;;;4998125;28;91929;-70
2022/04/02 01:58:59;;;;;;;3.70;2.47;;;2.40;87.70;;;;;;4997512;28;89438;-70
2022/04/02 02:01:29;;;;;;;3.63;2.45;;;2.40;87.90;;;;;;4997510;28;90017;-70
2022/04/02 02:03:56;;;;;;;3.85;2.33;;;2.40;87.80;;;;;;4997729;28;89570;-70
2022/04/02 02:06:24;;;;;;;2.30;1.83;;;2.40;88.00;;;;;;4998153;28;91185;-70
2022/04/02 02:08:51;;;;;;;4.03;2.50;;;2.30;88.10;;;;;;4997698;28;88453;-70
2022/04/02 02:11:38;;;;;;;2.55;2.30;;;2.40;88.20;;;;;;4997841;28;87815;-70
2022/04/02 02:14:26;;;;;;;6.93;3.13;;;2.40;88.20;;;;;;4977091;28;88476;-70
2022/04/02 02:17:09;;;;;;;;;;;2.40;88.40;;;;;;4998119;28;90602;-70
2022/04/02 02:19:37;;;;;;;2.53;2.10;;;2.30;88.50;;;;;;5014846;28;88841;-70
2022/04/02 02:22:05;;;;;;;3.47;2.38;;;2.30;88.50;;;;;;4997605;28;90002;-70
2022/04/02 02:24:32;;;;;;;4.32;2.85;;;2.30;88.70;;;;;;4997057;28;91129;-70
2022/04/02 02:27:00;;;;;;;3.83;2.67;;;2.30;88.80;;;;;;4997488;28;88543;-70
2022/04/02 02:29:31;;;;;;;4.30;2.72;;;2.20;89.00;;;;;;4981381;28;89166;-70
2022/04/02 02:32:09;;;;;;;4.90;2.55;;;2.20;89.20;;;;;;4997480;28;89370;-70
2022/04/02 02:37:47;;;;;;;4.85;2.83;;;2.20;89.70;;;;;;4920882;28;90882;-70
2022/04/02 02:40:15;;;;;;;4.00;3.20;;;2.20;89.80;;;;;;4937368;28;89681;-70
2022/04/02 02:42:43;;;;;;;4.70;2.72;;;2.20;90.00;;;;;;4992276;28;90794;-70
2022/04/02 02:45:21;;;;;;;6.57;3.35;;;2.20;90.10;;;;;;4996454;28;90919;-70
2022/04/02 02:47:52;;;;;;;3.92;3.08;;;2.10;90.20;;;;;;4997181;28;91586;-70
2022/04/02 02:50:26;;;;;;;4.78;2.90;;;2.10;90.10;;;;;;4998468;28;89098;-70
2022/04/02 02:52:57;;;;;;;6.90;2.95;;;2.10;90.20;;;;;;4997149;28;90360;-70
2022/04/02 02:55:24;;;;;;;9.77;3.10;;;2.10;90.40;;;;;;4996886;28;91387;-70
2022/04/02 02:57:51;;;;;;;4.88;3.05;;;2.10;90.50;;;;;;4996488;28;91349;-70
2022/04/02 03:00:21;;;;;;;4.03;2.72;;;2.10;90.50;;;;;;4998372;28;88494;-70
2022/04/02 03:02:53;;;;;;;4.80;2.90;;;2.10;90.60;;;;;;4998052;28;90753;-70
2022/04/02 03:05:25;;;;;;;3.53;2.65;;;2.10;90.70;;;;;;4996105;28;91342;-70
2022/04/02 03:07:56;;;;;;;4.65;2.80;;;2.00;90.70;;;;;;4996693;28;90959;-70
2022/04/02 03:10:37;;;;;;;3.88;2.47;;;2.00;90.80;;;;;;4996343;28;88822;-70
2022/04/02 03:13:06;;;;;;;7.28;3.22;;;2.00;90.80;;;;;;4996792;28;91050;-70
2022/04/02 03:15:34;;;;;;;5.00;3.17;;;2.00;90.90;;;;;;4996722;28;90139;-70
2022/04/02 03:18:08;;;;;;;4.72;2.92;;;2.00;90.90;;;;;;4996517;28;90103;-70
2022/04/02 03:20:41;;;;;;;6.18;2.90;;;2.00;91.10;;;;;;4996428;28;89242;-70
2022/04/02 03:23:12;;;;;;;4.80;2.58;;;2.00;91.20;;;;;;4996599;28;91193;-70
2022/04/02 03:25:39;;;;;;;4.18;2.90;;;1.90;91.30;;;;;;4996491;28;91136;-70
2022/04/02 03:28:07;;;;;;;4.82;2.95;;;1.90;91.40;;;;;;4997087;28;91070;-70
2022/04/02 03:30:34;;;;;;;4.30;2.75;;;1.90;91.50;;;;;;4996322;28;95324;-70
2022/04/02 03:33:01;;;;;;;4.88;2.78;;;1.90;91.60;;;;;;4996449;28;91065;-70
2022/04/02 03:35:29;;;;;;;5.90;2.85;;;1.90;91.70;;;;;;4995932;28;92200;-70
2022/04/02 03:37:57;;;;;;;5.53;2.70;;;1.90;91.70;;;;;;4979585;28;91684;-70
2022/04/02 03:40:26;;;;;;;4.40;2.83;;;1.90;91.70;;;;;;4996337;28;88364;-70
2022/04/02 03:42:54;;;;;;;5.85;2.90;;;1.80;91.90;;;;;;4996205;28;90797;-70
2022/04/02 03:45:30;;;;;;;4.13;3.13;;;1.90;91.90;;;;;;4996076;28;91581;-70
2022/04/02 03:47:57;;;;;;;7.43;3.40;;;1.80;91.90;;;;;;4996040;28;91191;-70
2022/04/02 03:50:26;;;;;;;5.53;2.95;;;1.90;92.00;;;;;;4996846;28;89096;-70
2022/04/02 03:52:56;;;;;;;6.53;3.30;;;1.90;92.00;;;;;;4996340;28;90797;-70
2022/04/02 03:55:32;;;;;;;4.03;2.80;;;1.90;92.10;;;;;;4996106;28;89842;-70
2022/04/02 03:58:03;;;;;;;5.07;3.05;;;1.90;92.20;;;;;;4980113;28;88543;-70
2022/04/02 04:00:30;;;;;;;5.30;3.55;;;1.90;92.20;;;;;;4995701;28;89381;-70
2022/04/02 04:03:04;;;;;;;4.78;2.95;;;1.90;92.20;;;;;;4995893;28;91058;-70
2022/04/02 04:05:37;;;;;;;5.60;3.13;;;1.90;92.30;;;;;;4996103;28;90493;-70
2022/04/02 04:08:06;;;;;;;3.85;3.28;;;1.90;92.40;;;;;;4996374;28;90668;-70
2022/04/02 04:10:34;;;;;;;8.70;3.20;;;1.90;92.60;;;;;;4996237;28;89442;-70
2022/04/02 04:13:01;;;;;;;4.80;2.85;;;1.90;92.40;;;;;;4995639;28;90795;-70
2022/04/02 04:15:32;;;;;;;6.35;3.75;;;1.90;92.40;;;;;;4995864;28;91307;-70
2022/04/02 04:18:02;;;;;;;4.63;3.00;;;2.00;92.40;;;;;;4999563;28;91269;-70
2022/04/02 04:20:32;;;;;;;4.13;2.53;;;1.90;92.50;;;;;;4999677;28;89307;-70
2022/04/02 04:23:00;;;;;;;5.38;3.00;;;1.90;92.50;;;;;;4999006;28;90871;-70
2022/04/02 04:25:29;;;;;;;4.05;2.85;;;2.00;92.60;;;;;;4999212;28;92123;-70
2022/04/02 04:27:58;;;;;;;4.18;2.38;;;1.90;92.60;;;;;;4998887;28;90310;-70
2022/04/02 04:30:26;;;;;;;7.82;2.92;;;1.90;92.70;;;;;;4999470;28;88412;-70
2022/04/02 04:32:55;;;;;;;6.60;2.90;;;2.00;92.70;;;;;;5000367;28;88394;-70
2022/04/02 04:35:25;;;;;;;3.97;2.63;;;2.00;92.70;;;;;;4999077;28;91558;-70
2022/04/02 04:37:52;;;;;;;5.25;2.53;;;2.00;92.80;;;;;;4998369;28;89403;-70
2022/04/02 04:40:24;;;;;;;3.28;2.50;;;2.00;92.90;;;;;;4999197;28;89480;-70
2022/04/02 04:42:52;;;;;;;6.30;2.65;;;2.00;92.80;;;;;;4999210;28;90402;-70
2022/04/02 04:45:27;;;;;;;6.43;3.08;;;2.00;92.90;;;;;;4998945;28;90812;-70
2022/04/02 04:47:54;;;;;;;5.93;2.70;;;2.00;92.90;;;;;;4998804;28;90973;-70
2022/04/02 04:50:23;;;;;;;3.92;2.90;;;1.90;92.90;;;;;;4998387;28;89120;-70
2022/04/02 04:52:54;;;;;;;4.82;2.90;;;1.90;93.00;;;;;;4998731;28;90842;-70
2022/04/02 04:55:21;;;;;;;9.50;3.53;;;1.90;93.00;;;;;;4998783;28;90446;-70
2022/04/02 04:57:50;;;;;;;5.80;3.80;;;1.90;93.10;;;;;;4998566;28;90930;-70
2022/04/02 05:00:24;;;;;;;5.55;3.45;;;1.90;93.20;;;;;;4998799;28;88827;-70
2022/04/02 05:02:52;;;;;;;6.50;3.15;;;1.90;93.30;;;;;;4998412;28;90517;-70
2022/04/02 05:05:27;;;;;;;;;;;1.90;93.30;;;;;;4999316;28;88546;-70
2022/04/02 05:08:00;;;;;;;5.88;2.72;;;1.80;93.30;;;;;;5033514;28;90344;-70
2022/04/02 05:10:28;;;;;;;5.28;3.10;;;1.80;93.30;;;;;;4998689;28;88056;-70
2022/04/02 05:12:57;;;;;;;4.25;2.50;;;1.80;93.30;;;;;;4998263;28;89700;-70
2022/04/02 05:15:25;;;;;;;3.60;2.88;;;1.80;93.40;;;;;;4998460;28;91908;-70
2022/04/02 05:17:53;;;;;;;5.18;3.40;;;1.80;93.50;;;;;;4998218;28;91721;-70
2022/04/02 05:20:21;;;;;;;2.92;2.00;;;1.80;93.60;;;;;;4998413;28;88494;-70
2022/04/02 05:22:48;;;;;;;3.92;3.10;;;1.80;93.60;;;;;;4998538;28;89797;-70
2022/04/02 05:25:15;;;;;;;7.25;3.42;;;1.80;93.60;;;;;;4998307;28;91325;-70
2022/04/02 05:27:44;;;;;;;3.40;2.20;;;1.80;93.70;;;;;;4998230;28;90934;-70
2022/04/02 05:30:12;;;;;;;4.75;3.00;;;1.80;93.60;;;;;;4998218;28;89384;-70
2022/04/02 05:32:39;;;;;;;4.95;2.97;;;1.80;93.60;;;;;;4998617;28;89486;-70
2022/04/02 05:35:07;;;;;;;3.47;2.45;;;1.90;93.60;;;;;;4997901;28;91400;-70
2022/04/02 05:37:41;;;;;;;6.22;3.08;;;1.90;93.60;;;;;;4998158;28;88718;-70
2022/04/02 05:40:09;;;;;;;5.17;3.00;;;1.90;93.70;;;;;;4997423;28;89509;-70
2022/04/02 05:42:35;;;;;;;6.93;3.13;;;2.00;93.60;;;;;;4998171;28;91105;-70
2022/04/02 05:45:03;;;;;;;6.20;2.85;;;2.00;93.50;;;;;;4997721;28;91619;-70
2022/04/02 05:47:47;;;;;;;6.00;3.03;;;2.10;93.50;;;;;;4998105;28;89923;-70
2022/04/02 05:50:16;;;;;;;5.83;3.37;;;2.10;93.40;;;;;;4997804;28;87996;-70
2022/04/02 05:53:02;;;;;;;5.43;3.10;;;2.10;93.40;;;;;;4999369;28;88540;-70
2022/04/02 05:55:29;;;;;;;6.70;3.20;;;2.20;93.30;;;;;;4997984;28;94120;-70
2022/04/02 05:57:57;;;;;;;2.92;2.58;;;2.20;93.10;;;;;;4998264;28;91199;-70
2022/04/02 06:00:24;;;;;;;4.78;2.47;;;2.30;93.00;;;;;;4999211;28;88127;-70
2022/04/02 06:02:55;;;;;;;4.13;3.08;;;2.30;92.80;;;;;;4999160;28;88323;-70
2022/04/02 06:05:22;;;;;;;6.93;3.35;;;2.30;92.80;;;;;;4998827;28;88736;-70
2022/04/02 06:07:49;;;;;;;4.40;3.20;;;2.40;92.70;;;;;;4998092;28;89388;-70
2022/04/02 06:10:16;;;;;;;3.88;3.00;;;2.50;92.70;;;;;;4997385;28;88230;-70
2022/04/02 06:12:43;;;;;;;6.25;3.40;;;2.60;92.60;;;;;;4999087;28;88316;-70
2022/04/02 06:15:10;;;;;;;3.58;2.88;;;2.60;92.40;;;;;;4996984;28;104727;-70
2022/04/02 06:17:37;;;;;;;4.88;3.42;;;2.70;92.40;;;;;;4998953;28;88614;-70
2022/04/02 06:20:06;;;;;;;5.90;3.05;;;2.80;92.20;;;;;;4997285;28;87954;-70
2022/04/02 06:22:34;;;;;;;5.25;3.03;;;2.90;92.00;;;;;;4999110;28;87455;-70
2022/04/02 06:25:02;;;;;;;3.67;2.78;;;3.10;91.80;;;;;;4998686;28;88783;-70
2022/04/02 06:27:29;;;;;;;4.45;2.78;;;3.10;91.60;;;;;;4997573;28;88652;-70
2022/04/02 06:29:58;;;;;;;4.80;3.08;;;3.30;91.50;;;;;;4997196;28;88785;-70
2022/04/02 06:32:25;;;;;;;6.38;3.50;;;3.50;91.50;;;;;;4997434;28;88108;-70
2022/04/02 06:34:53;;;;;;;5.72;3.40;;;3.60;90.90;;;;;;4997387;28;91203;-70
2022/04/02 06:37:20;;;;;;;4.63;3.00;;;3.80;90.50;;;;;;4996682;28;90924;-70
2022/04/02 06:39:47;;;;;;;5.63;3.47;;;4.00;90.00;;;;;;4996302;28;89394;-70
2022/04/02 06:42:14;;;;;;;3.50;3.20;;;4.30;89.70;;;;;;4998288;28;88051;-70
2022/04/02 06:44:49;;;;;;;7.40;2.92;;;4.60;89.10;;;;;;4997018;28;90584;-70
2022/04/02 06:47:16;;;;;;;5.90;4.22;;;5.00;87.70;;;;;;4997565;28;88556;-71
2022/04/02 06:49:42;;;;;;;4.35;3.17;;;5.30;86.10;;;;;;5013851;28;88084;-70
2022/04/02 06:52:09;;;;;;;3.67;3.35;;;5.50;85.20;;;;;;4996951;28;91104;-71
2022/04/02 06:54:36;;;;;;;4.32;3.55;;;5.70;84.60;;;;;;4996750;28;89731;-70
2022/04/02 06:57:04;;;;;;;4.20;3.90;;;5.80;83.80;;;;;;4998038;28;89270;-71
2022/04/02 06:59:30;;;;;;;4.38;3.67;;;6.00;83.50;;;;;;4998252;28;88159;-71
2022/04/02 07:02:03;;;;;;;6.20;3.40;;;6.30;82.90;;;;;;4998245;28;89017;-71
2022/04/02 07:04:29;;;;;;;4.47;3.50;;;6.60;82.20;;;;;;4998310;28;88848;-71
2022/04/02 07:06:57;;;;;;;3.13;2.83;;;6.90;81.40;;;;;;4997071;28;88613;-71
2022/04/02 07:09:24;;;;;;;4.60;2.75;;;7.20;80.40;;;;;;4998108;28;88404;-71
2022/04/02 07:11:51;;;;;;;4.22;3.15;;;7.20;77.90;;;;;;4996901;28;90054;-71
2022/04/02 07:14:18;;;;;;;3.72;3.08;;;7.20;78.40;;;;;;4997430;28;99863;-71
2022/04/02 07:16:45;;;;;;;3.55;3.22;;;7.20;78.30;;;;;;4998075;28;88566;-71
2022/04/02 07:19:13;;;;;;;5.22;4.07;;;7.00;76.80;;;;;;4996284;28;88743;-71
2022/04/02 07:21:42;;;;;;;5.22;4.68;;;7.10;77.60;;;;;;4980349;28;88392;-71
2022/04/02 07:24:11;;;;;;;5.00;3.58;;;7.20;77.60;;;;;;4997825;28;88930;-71
2022/04/02 07:26:39;;;;;;;4.82;2.78;;;7.40;77.30;;;;;;4997808;28;88496;-71
2022/04/02 07:29:09;;;;;;;8.73;4.13;;;7.70;76.20;;;;;;4996361;28;88054;-71
2022/04/02 07:31:36;;;;;;;5.22;3.30;;;7.90;75.80;;;;;;4996840;28;88324;-71
2022/04/02 07:34:03;;;;;;;4.18;3.15;;;8.00;75.20;;;;;;4997757;28;88576;-71
2022/04/02 07:36:53;;;;;;;4.47;3.45;;;8.20;74.60;;;;;;4997061;28;90345;-69
2022/04/02 07:39:34;;;;;;;7.05;4.00;;;8.30;74.30;;;;;;4996205;28;89342;-70
2022/04/02 07:42:23;;;;;;;4.10;3.15;;;8.40;73.30;;;;;;4996247;28;90956;-69
2022/04/02 07:45:04;;;;;;;4.28;3.78;;;8.40;73.10;;;;;;4995938;28;91845;-69
2022/04/02 07:47:37;;;;;;;5.25;3.75;;;8.40;72.30;;;;;;5012707;28;88343;-69
2022/04/02 07:50:13;;;;;;;5.05;3.75;;;8.40;72.50;;;;;;4998489;28;87987;-69
2022/04/02 07:52:45;;;;;;;5.40;3.80;;;8.50;71.20;;;;;;5001403;28;88327;-69
2022/04/02 07:55:13;;;;;;;4.97;3.90;;;8.60;72.10;;;;;;4999342;28;90350;-70
2022/04/02 07:57:47;;;;;;;4.55;4.10;;;8.80;71.20;;;;;;4999757;28;88391;-69
2022/04/02 08:00:20;;;;;;;4.43;4.03;;;9.00;70.00;;;;;;5001032;28;88114;-69
2022/04/02 08:02:49;;;;;;;5.35;4.75;;;9.10;68.90;;;;;;5016927;28;88142;-69
2022/04/02 08:05:21;;;;;;;4.93;4.53;;;9.30;68.30;;;;;;5000002;28;90188;-70
2022/04/02 08:07:55;;;;;;;4.63;4.22;;;9.30;67.20;;;;;;4999722;28;88767;-69
2022/04/02 08:10:28;;;;;;;6.38;4.88;;;9.40;66.60;;;;;;5000039;28;89287;-69
2022/04/02 08:12:57;;;;;;;4.93;4.55;;;9.80;66.00;;;;;;4999691;28;88177;-69
2022/04/02 08:15:25;;;;;;;5.80;5.30;;;10.10;64.30;;;;;;5000319;28;93872;-69
2022/04/02 08:17:56;;;;;;;5.40;4.90;;;10.20;63.50;;;;;;5000271;28;91058;-70
2022/04/02 08:20:25;;;;;;;6.43;3.67;;;10.40;62.60;;;;;;4999336;28;88113;-69
2022/04/02 08:22:54;;;;;;;4.78;3.60;;;10.40;61.40;;;;;;4999135;28;91432;-69
2022/04/02 08:25:21;;;;;;;4.88;3.65;;;10.50;62.20;;;;;;4999100;28;88684;-69
2022/04/02 08:28:05;;;;;;;5.57;3.72;;;10.80;60.70;;;;;;5000961;28;88572;-69
2022/04/02 08:30:38;;;;;;;3.95;3.00;;;11.10;60.40;;;;;;4999131;28;89293;-69
2022/04/02 08:33:17;;;;;;;3.33;3.00;;;11.20;58.20;;;;;;4999402;28;88305;-69
2022/04/02 08:35:53;;;;;;;4.68;2.95;;;11.60;59.10;;;;;;5000322;28;89356;-69
2022/04/02 08:38:30;;;;;;;4.13;2.85;;;11.50;56.20;;;;;;5000096;28;89425;-69
2022/04/02 08:40:57;;;;;;;4.43;2.40;;;11.50;55.60;;;;;;5000494;28;88043;-69
2022/04/02 08:43:44;;;;;;;4.88;2.25;;;11.10;55.80;;;;;;4999302;28;88255;-69
2022/04/02 08:46:16;;;;;;;7.20;2.25;;;10.90;57.60;;;;;;5000182;28;96183;-69
2022/04/02 08:49:12;;;;;;;2.67;2.10;;;10.70;56.90;;;;;;5000436;28;88135;-69
2022/04/02 08:51:42;;;;;;;5.43;2.35;;;10.40;58.30;;;;;;4998789;28;88367;-69
2022/04/02 08:54:25;;;;;;;4.25;2.17;;;10.20;60.00;;;;;;4999076;28;91105;-69
2022/04/02 08:57:15;;;;;;;2.97;2.00;;;10.10;60.90;;;;;;5000297;28;92052;-69
2022/04/02 08:59:44;;;;;;;3.15;2.22;;;9.90;60.20;;;;;;5000166;28;88431;-69
2022/04/02 09:02:38;;;;;;;2.47;1.80;;;9.70;59.80;;;;;;4998214;28;91505;-69
2022/04/02 09:05:24;;;;;;;4.80;1.90;;;9.50;59.40;;;;;;4999023;28;91322;-71
2022/04/02 09:07:57;;;;;;;3.20;2.22;;;9.10;62.30;;;;;;4998809;28;90057;-71
2022/04/02 09:10:42;;;;;;;2.10;1.47;;;8.80;64.30;;;;;;4999772;28;88579;-71
2022/04/02 09:13:37;;;;;;;2.72;1.90;;;8.50;65.80;;;;;;4998713;28;88188;-71
2022/04/02 09:16:05;;;;;;;3.63;2.17;;;8.30;67.00;;;;;;5000273;28;88429;-71
2022/04/02 09:18:57;;;;;;;3.00;1.60;;;7.90;68.40;;;;;;4998299;28;89040;-71
2022/04/02 09:21:45;;;;;;;3.83;1.38;;;7.50;69.70;;;;;;4998468;28;89657;-71
2022/04/02 09:24:43;;;;;;;3.83;1.77;;;7.30;71.50;;;;;;4999672;28;91621;-71
2022/04/02 09:27:13;;;;;;;1.92;1.48;;;7.10;71.90;;;;;;5000074;28;88392;-71
2022/04/02 09:30:03;;;;;;;2.92;2.33;;;6.80;74.40;;;;;;4997961;28;91514;-71
2022/04/02 09:32:56;;;;;;;6.32;1.83;;;6.60;76.80;;;;;;4998379;28;89742;-71
2022/04/02 09:36:16;;;;;;;4.25;1.83;;;6.60;77.90;;;;;;4999535;28;87942;-69
2022/04/02 09:38:43;;;;;;;2.42;1.45;;;6.50;75.50;;;;;;4917818;28;91206;-69
2022/04/02 09:41:16;;;;;;;2.92;1.40;;;6.50;74.40;;;;;;4999420;28;89459;-69
2022/04/02 09:43:57;;;;;;;1.65;1.33;;;6.50;71.50;;;;;;4999269;28;88494;-69
2022/04/02 09:46:44;;;;;;;3.75;1.65;;;6.50;69.20;;;;;;4999387;28;87981;-69
2022/04/02 09:49:43;;;;;;;2.60;1.58;;;6.50;70.60;;;;;;4998347;28;90809;-69
2022/04/02 09:52:17;;;;;;;1.48;0.93;;;6.40;71.80;;;;;;4999476;28;89497;-69
2022/04/02 09:55:02;;;;;;;;;;;6.40;70.90;;;;;;4999715;28;88459;-69
2022/04/02 09:57:56;;;;;;;1.83;1.58;;;6.40;70.40;;;;;;4999955;28;88858;-69
2022/04/02 10:00:38;;;;;;;2.75;1.45;;;6.60;67.30;;;;;;4999157;28;88778;-69
2022/04/02 10:03:13;;;;;;;1.58;1.48;;;6.70;63.80;;;;;;4997762;28;90069;-69
2022/04/02 10:05:46;;;;;;;1.35;1.23;;;6.80;63.30;;;;;;4999185;28;88536;-69
2022/04/02 10:08:32;;;;;;;2.42;2.10;;;6.90;63.70;;;;;;4999309;28;87928;-69
2022/04/02 10:11:02;;;;;;;2.00;1.80;;;7.10;64.00;;;;;;4999053;28;88351;-69
2022/04/02 10:13:33;;;;;;;1.70;1.50;;;7.30;64.70;;;;;;4996295;28;90085;-69
2022/04/02 10:16:00;;;;;;;3.67;1.35;;;7.50;64.60;;;;;;4998039;28;91071;-69
2022/04/02 10:18:27;;;;;;;3.47;1.55;;;7.60;64.70;;;;;;5013764;28;97483;-69
2022/04/02 10:20:54;;;;;;;2.33;1.70;;;7.90;65.40;;;;;;4997502;28;90939;-69
2022/04/02 10:23:29;;;;;;;2.35;1.90;;;8.10;65.80;;;;;;4997225;28;89588;-69
2022/04/02 10:26:17;;;;;;;5.22;1.50;;;8.30;65.10;;;;;;4998981;28;89301;-70
2022/04/02 10:28:56;;;;;;;3.22;1.98;;;8.50;65.30;;;;;;4997218;28;89339;-69
2022/04/02 10:32:03;;;;;;;2.17;1.40;;;8.60;65.70;;;;;;5013808;28;88419;-69
2022/04/02 10:34:39;;;;;;;2.85;1.40;;;8.50;66.40;;;;;;4948222;28;88723;-70
2022/04/02 10:37:12;;;;;;;3.63;1.77;;;8.40;66.40;;;;;;4996911;28;91501;-70
2022/04/02 10:40:02;;;;;;;2.97;2.00;;;8.20;67.20;;;;;;4998662;28;88457;-70
2022/04/02 10:42:39;;;;;;;2.83;1.90;;;8.00;69.00;;;;;;4997750;28;88157;-69
2022/04/02 10:45:11;;;;;;;1.60;1.48;;;7.80;70.30;;;;;;4998652;28;88830;-71
2022/04/02 10:47:45;;;;;;;3.80;1.85;;;7.60;68.80;;;;;;4998245;28;89751;-69
2022/04/02 10:50:16;;;;;;;3.10;1.80;;;7.40;67.70;;;;;;4996412;28;93062;-69
2022/04/02 10:52:48;;;;;;;2.00;1.35;;;7.40;67.90;;;;;;4997133;28;88027;-69
2022/04/02 10:55:22;;;;;;;1.50;1.40;;;7.40;65.00;;;;;;4998308;28;88733;-69
2022/04/02 10:57:49;;;;;;;1.73;1.50;;;7.40;63.10;;;;;;4996809;28;91197;-69
2022/04/02 11:00:17;;;;;;;1.60;1.50;;;7.50;62.90;;;;;;4996880;28;89535;-69
2022/04/02 11:02:46;;;;;;;1.80;1.15;;;7.50;62.20;;;;;;4997926;28;88330;-69
2022/04/02 11:05:16;;;;;;;1.55;1.20;;;7.60;58.80;;;;;;4996897;28;90314;-69
2022/04/02 11:07:49;;;;;;;3.28;1.25;;;7.50;56.60;;;;;;4997026;28;91115;-71
2022/04/02 11:10:18;;;;;;;2.03;1.33;;;7.50;57.70;;;;;;4996744;28;89553;-71
2022/04/02 11:12:48;;;;;;;1.60;1.50;;;7.50;58.60;;;;;;4997765;28;88371;-71
2022/04/02 11:15:24;;;;;;;4.78;2.00;;;7.60;58.30;;;;;;4996757;28;89150;-71
2022/04/02 11:17:53;;;;;;;3.17;1.80;;;7.90;59.80;;;;;;4997610;28;89332;-71
2022/04/02 11:20:26;;;;;;;2.65;1.77;;;8.10;59.80;;;;;;4997840;28;88036;-71
2022/04/02 11:23:02;;;;;;;1.70;1.60;;;8.10;59.30;;;;;;4997870;28;88987;-71
2022/04/02 11:25:31;;;;;;;2.22;1.50;;;8.00;59.10;;;;;;4996125;28;91743;-71
2022/04/02 11:28:09;;;;;;;1.33;1.23;;;7.80;56.40;;;;;;4996293;28;90783;-71
2022/04/02 11:30:40;;;;;;;2.40;1.25;;;7.60;55.50;;;;;;5013260;28;88765;-71
2022/04/02 11:33:12;;;;;;;2.10;1.38;;;7.50;57.30;;;;;;4996833;28;91108;-71
2022/04/02 11:36:06;;;;;;;1.63;1.50;;;7.50;58.10;;;;;;4997564;28;88994;-71
2022/04/02 11:38:46;;;;;;;2.63;1.70;;;7.60;56.30;;;;;;5008419;28;88089;-69
2022/04/02 11:41:27;;;;;;;1.60;1.38;;;7.70;55.50;;;;;;4996029;28;88719;-71
2022/04/02 11:44:16;;;;;;;5.30;2.30;;;7.90;56.40;;;;;;4997717;28;88267;-71
2022/04/02 11:46:59;;;;;;;2.75;1.67;;;8.20;57.80;;;;;;4996013;28;92996;-71
2022/04/02 11:49:33;;;;;;;3.33;1.42;;;8.20;60.60;;;;;;4996744;28;89161;-71
2022/04/02 11:52:14;;;;;;;2.00;1.25;;;8.00;61.40;;;;;;4979807;28;89739;-70
2022/04/02 11:54:47;;;;;;;2.00;1.75;;;7.90;62.10;;;;;;4997397;28;87966;-71
2022/04/02 11:57:15;;;;;;;1.95;1.67;;;7.80;64.50;;;;;;4996429;28;88943;-71
2022/04/02 11:59:56;;;;;;;2.40;1.27;;;7.80;63.20;;;;;;4997511;28;88661;-70
2022/04/02 12:02:42;;;;;;;2.30;1.58;;;7.70;61.40;;;;;;4996419;28;88044;-71
2022/04/02 12:05:12;;;;;;;2.88;1.33;;;7.80;61.80;;;;;;4997618;28;88482;-71
2022/04/02 12:07:43;;;;;;;2.40;1.33;;;8.00;63.50;;;;;;4995342;28;92067;-71
2022/04/02 12:10:32;;;;;;;1.92;1.45;;;8.10;62.40;;;;;;4997471;28;89368;-71
2022/04/02 12:13:03;;;;;;;3.65;1.23;;;8.10;61.30;;;;;;4995519;28;89694;-71
2022/04/02 12:15:31;;;;;;;1.25;1.15;;;8.20;61.70;;;;;;4997025;28;88510;-71
2022/04/02 12:18:08;;;;;;;2.95;1.75;;;8.20;61.70;;;;;;4995575;28;88835;-71
2022/04/02 12:20:39;;;;;;;2.00;1.23;;;8.20;59.30;;;;;;4997418;28;88681;-71
2022/04/02 12:23:06;;;;;;;1.33;1.23;;;8.00;60.00;;;;;;4997149;28;87976;-69
2022/04/02 12:25:34;;;;;;;1.55;1.20;;;7.70;60.00;;;;;;4997661;28;88360;-69
2022/04/02 12:28:10;;;;;;;1.83;1.60;;;7.60;60.80;;;;;;4996909;28;88662;-71
2022/04/02 12:30:40;;;;;;;3.17;1.90;;;7.60;61.20;;;;;;4997342;28;88607;-71
2022/04/02 12:33:11;;;;;;;1.85;1.60;;;7.60;61.90;;;;;;4996697;28;88892;-71
2022/04/02 12:35:38;;;;;;;2.58;1.67;;;7.70;60.90;;;;;;4995789;28;91308;-71
2022/04/02 12:38:08;;;;;;;1.52;1.30;;;7.90;60.10;;;;;;4998684;28;88866;-71
2022/04/02 12:40:41;;;;;;;2.33;1.55;;;8.00;58.90;;;;;;5000301;28;88067;-69
2022/04/02 12:43:10;;;;;;;2.60;1.42;;;8.20;59.70;;;;;;4982764;28;88075;-69
2022/04/02 12:45:38;;;;;;;2.22;1.75;;;8.30;59.60;;;;;;4982533;28;89328;-69
2022/04/02 12:48:09;;;;;;;1.73;1.00;;;8.40;56.30;;;;;;5000167;28;88747;-69
2022/04/02 12:50:37;;;;;;;1.52;1.42;;;8.50;52.80;;;;;;5000604;28;88660;-69
2022/04/02 12:53:05;;;;;;;1.67;1.58;;;8.50;53.90;;;;;;5000231;28;87952;-70
2022/04/02 12:55:33;;;;;;;1.70;1.60;;;8.40;54.50;;;;;;4982711;28;88472;-69
2022/04/02 12:58:10;;;;;;;2.08;1.90;;;8.50;53.80;;;;;;4998096;28;97808;-71
2022/04/02 13:00:41;;;;;;;2.72;1.90;;;8.60;53.00;;;;;;4998707;28;90494;-69
2022/04/02 13:03:34;;;;;;;4.05;1.52;;;8.70;53.40;;;;;;5000319;28;87937;-71
2022/04/02 13:06:06;;;;;;;1.70;1.52;;;8.80;52.60;;;;;;5000059;28;88268;-71
2022/04/02 13:08:50;;;;;;;4.28;2.03;;;8.80;53.90;;;;;;4998669;28;91316;-71
2022/04/02 13:11:37;;;;;;;3.38;1.30;;;9.00;51.20;;;;;;5000147;28;88546;-71
2022/04/02 13:14:34;;;;;;;0.93;0.93;;;9.10;49.10;;;;;;4998442;28;89322;-71
2022/04/02 13:17:10;;;;;;;1.20;1.20;;;9.10;48.50;;;;;;4995564;28;90991;-71
2022/04/02 13:23:02;;;;;;;2.28;1.42;;;8.80;48.10;;;;;;4999823;28;88630;-71
2022/04/02 13:25:29;;;;;;;1.85;1.50;;;8.70;48.00;;;;;;4999543;28;88738;-71
2022/04/02 13:28:28;;;;;;;1.92;1.40;;;8.70;47.80;;;;;;4981794;28;90903;-71
2022/04/02 13:31:02;;;;;;;2.30;1.35;;;8.70;44.00;;;;;;4997932;28;91541;-71
2022/04/02 13:33:38;;;;;;;;;;;8.70;43.60;;;;;;4998991;28;88982;-71